Sycamore, Ohio
Current Conditions -  °F | °C
As of 4:53 PM on Friday 24 Oct 2014 (Local Time) from KMNN Reporting Station
Overcast Overcast  
Wind Chill: 63°   Ceiling: 4300
Heat Index: 63°   Visibility: 7mi
Dew Point: 37°   Wind: 5mph
Humidity: 38%   Direction: 290°WNW
Pressure: 30.01"   Gusts: NA
Location:  40.95°N, 83.17°W
Report Text: KMNN 242053Z AUTO 29004KT 7SM OVC043 17/03 A3001 RMK AO2 SLP166 T01720028 56016 TSNO
Loading
Personal Weather Stations






























Interactive Weather Map
Tropical Storm Tracking
New forecast layout! Learn more

10-Day Weather Forecast

Advertisements
Track Severe Weather on mobile